Time;durP1;ratioP1;P1;durP2;ratioP2;P2;SDS_P1;SDS_P2;PMS_P1;PMS_P2;Temp;Humidity;BMP_temperature;BMP_pressure;BME280_temperature;BME280_humidity;BME280_pressure;Samples;Min_cycle;Max_cycle;Signal;HPM_P1;HPM_P2
2022/09/29 00:01:01;;;;;;;6.10;3.90;;;;;;;7.31;82.24;98269.95;213026;1277;142986;-65
2022/09/29 00:06:13;;;;;;;5.60;5.10;;;;;;;7.25;81.93;98274.11;214320;1275;139635;-66
2022/09/29 00:11:19;;;;;;;8.90;5.00;;;;;;;7.20;82.06;98274.10;214575;1274;140230;-65
2022/09/29 00:16:22;;;;;;;5.00;4.50;;;;;;;7.15;82.21;98279.45;213659;1276;141988;-65
2022/09/29 00:21:25;;;;;;;7.90;5.80;;;;;;;7.16;82.43;98279.46;214847;1275;141040;-66
2022/09/29 00:26:28;;;;;;;6.20;4.30;;;;;;;7.17;82.12;98281.48;214779;1276;139856;-65
2022/09/29 00:31:32;;;;;;;6.40;5.70;;;;;;;7.19;82.09;98286.17;214582;1276;140803;-65
2022/09/29 00:36:35;;;;;;;6.80;5.30;;;;;;;7.24;82.42;98288.95;214044;1277;139872;-65
2022/09/29 00:41:39;;;;;;;9.20;6.30;;;;;;;7.30;82.60;98289.33;214401;1276;140238;-65
2022/09/29 00:47:02;;;;;;;6.70;5.90;;;;;;;7.40;82.66;98293.77;214593;1276;142584;-65
2022/09/29 00:52:11;;;;;;;5.90;4.30;;;;;;;7.47;82.54;98300.79;215819;1276;139904;-68
2022/09/29 00:57:18;;;;;;;7.20;6.00;;;;;;;7.48;82.53;98309.49;215868;1276;140455;-68
2022/09/29 01:02:22;;;;;;;7.20;5.20;;;;;;;7.46;82.62;98318.11;215934;1276;139937;-68
2022/09/29 01:07:26;;;;;;;7.40;5.80;;;;;;;7.52;82.47;98321.48;215596;1276;140600;-66
2022/09/29 01:12:29;;;;;;;7.50;6.10;;;;;;;7.57;82.44;98329.13;215792;1275;140794;-66
2022/09/29 01:17:32;;;;;;;7.70;6.30;;;;;;;7.58;82.23;98330.89;214987;1275;140027;-66
2022/09/29 01:22:42;;;;;;;6.30;5.70;;;;;;;7.51;82.27;98336.37;214870;1276;140247;-64
2022/09/29 01:28:32;;;;;;;6.70;5.20;;;;;;;7.55;82.62;98346.12;214379;1276;140397;-66
2022/09/29 01:33:59;;;;;;;3.50;3.20;;;;;;;7.45;82.06;98341.96;213491;1276;140034;-66
2022/09/29 01:39:30;;;;;;;7.80;6.20;;;;;;;7.33;82.45;98349.95;214372;1276;139709;-66
2022/09/29 01:44:43;;;;;;;11.10;6.10;;;;;;;7.28;82.40;98345.30;213255;1275;140060;-65
2022/09/29 01:49:55;;;;;;;8.00;6.50;;;;;;;7.26;82.06;98343.93;213453;1276;140491;-65
2022/09/29 01:55:11;;;;;;;6.70;5.70;;;;;;;7.28;82.45;98347.04;213599;1276;139971;-65
2022/09/29 02:00:17;;;;;;;6.70;5.90;;;;;;;7.32;82.64;98347.61;213646;1276;139725;-65
2022/09/29 02:05:35;;;;;;;7.20;6.60;;;;;;;7.27;82.69;98346.12;213569;1276;140197;-66
2022/09/29 02:10:46;;;;;;;8.20;6.50;;;;;;;7.21;82.94;98349.34;213266;1276;141340;-66
2022/09/29 02:15:54;;;;;;;9.70;6.60;;;;;;;7.20;82.62;98354.98;213898;1275;141725;-66
2022/09/29 02:20:57;;;;;;;10.30;7.00;;;;;;;7.20;82.57;98355.79;214352;1276;141286;-66
2022/09/29 02:26:01;;;;;;;10.90;7.00;;;;;;;7.23;82.65;98363.02;213075;1275;141741;-65
2022/09/29 02:31:06;;;;;;;6.80;6.10;;;;;;;7.18;82.41;98366.46;213305;1276;141300;-65
2022/09/29 02:36:24;;;;;;;6.60;5.70;;;;;;;7.05;82.10;98374.08;213445;1276;141125;-65
2022/09/29 02:41:48;;;;;;;9.40;5.90;;;;;;;6.97;82.71;98383.90;213719;1276;141858;-65
2022/09/29 02:47:13;;;;;;;7.10;6.40;;;;;;;6.90;82.49;98392.76;214704;1276;141726;-65
2022/09/29 02:52:26;;;;;;;9.10;7.60;;;;;;;6.89;82.69;98392.27;214215;1275;142178;-68
2022/09/29 02:57:49;;;;;;;8.90;7.40;;;;;;;6.87;82.59;98397.25;216034;1275;140311;-67
2022/09/29 03:02:52;;;;;;;8.70;7.00;;;;;;;6.82;82.70;98398.23;215975;1276;139862;-68
2022/09/29 03:07:53;;;;;;;9.80;7.30;;;;;;;6.80;82.54;98400.75;215893;1276;140118;-66
2022/09/29 03:12:55;;;;;;;11.20;8.40;;;;;;;6.82;82.25;98388.77;215774;1276;140007;-66
2022/09/29 03:17:58;;;;;;;7.10;6.20;;;;;;;6.81;82.58;98398.12;216056;1276;140631;-66
2022/09/29 03:23:01;;;;;;;12.10;7.20;;;;;;;6.75;82.18;98407.83;215244;1275;140300;-65
2022/09/29 03:28:04;;;;;;;11.30;9.30;;;;;;;6.74;82.27;98409.82;214464;1276;142195;-65
2022/09/29 03:33:07;;;;;;;10.10;8.70;;;;;;;6.65;82.24;98410.12;213651;1276;141729;-65
2022/09/29 03:38:10;;;;;;;9.90;8.40;;;;;;;6.55;82.14;98416.84;214202;1276;144127;-65
2022/09/29 03:43:13;;;;;;;17.00;9.40;;;;;;;6.53;82.96;98420.09;214065;1277;141682;-65
2022/09/29 03:48:18;;;;;;;11.90;9.10;;;;;;;6.59;83.31;98413.35;213242;1276;143218;-64
2022/09/29 03:53:26;;;;;;;14.80;10.70;;;;;;;6.60;83.27;98411.98;214018;1276;141765;-66
2022/09/29 03:58:29;;;;;;;13.20;9.20;;;;;;;6.63;83.17;98417.08;213751;1276;141635;-65
2022/09/29 04:03:31;;;;;;;6.70;5.60;;;;;;;6.64;83.52;98417.21;213745;1276;141189;-65
2022/09/29 04:08:37;;;;;;;11.40;9.60;;;;;;;6.62;83.17;98425.97;213517;1276;140300;-65
2022/09/29 04:13:40;;;;;;;8.40;6.40;;;;;;;6.65;83.62;98434.64;213449;1277;140676;-65
2022/09/29 04:18:43;;;;;;;10.70;9.20;;;;;;;6.64;83.73;98436.00;213812;1276;141293;-65
2022/09/29 04:23:47;;;;;;;9.50;8.20;;;;;;;6.66;83.79;98440.17;214285;1276;145353;-65
2022/09/29 04:28:50;;;;;;;12.30;9.40;;;;;;;6.68;83.46;98448.30;213497;1276;141092;-65
2022/09/29 04:33:53;;;;;;;13.80;9.70;;;;;;;6.73;84.00;98467.07;214465;1276;141100;-64
2022/09/29 04:38:57;;;;;;;11.00;8.70;;;;;;;6.81;83.64;98463.85;213993;1276;142138;-64
2022/09/29 04:44:01;;;;;;;9.40;7.30;;;;;;;6.84;83.41;98457.34;214583;1276;142205;-66
2022/09/29 04:49:08;;;;;;;12.90;9.30;;;;;;;6.84;83.55;98464.91;213499;1276;142068;-65
2022/09/29 04:54:11;;;;;;;10.00;8.50;;;;;;;6.88;83.76;98471.11;214752;1276;141060;-65
2022/09/29 04:59:16;;;;;;;11.00;8.90;;;;;;;6.92;83.54;98472.52;213924;1276;142725;-65
2022/09/29 05:04:19;;;;;;;11.10;8.70;;;;;;;6.91;83.39;98484.27;215304;1276;141212;-65
2022/09/29 05:09:21;;;;;;;9.60;7.00;;;;;;;6.90;83.26;98486.09;215967;1276;139905;-65
2022/09/29 05:14:26;;;;;;;11.90;7.30;;;;;;;6.94;83.06;98484.94;215913;1276;140761;-65
2022/09/29 05:19:28;;;;;;;8.90;7.20;;;;;;;7.03;83.34;98485.98;215963;1276;140490;-66
2022/09/29 05:24:31;;;;;;;7.40;6.60;;;;;;;7.07;83.22;98493.81;214496;1276;141305;-64
2022/09/29 05:29:34;;;;;;;9.70;7.70;;;;;;;7.08;82.89;98493.25;215348;1276;142132;-62
2022/09/29 05:34:38;;;;;;;11.30;8.50;;;;;;;7.11;83.08;98497.79;214501;1276;139985;-65
2022/09/29 05:39:43;;;;;;;10.70;8.80;;;;;;;7.16;82.82;98503.02;215786;1276;141085;-65
2022/09/29 05:44:47;;;;;;;9.40;7.80;;;;;;;7.20;83.01;98502.02;214551;1276;140317;-65
2022/09/29 05:49:50;;;;;;;10.70;8.40;;;;;;;7.23;83.11;98506.14;214246;1276;140267;-64
2022/09/29 05:54:53;;;;;;;11.60;8.20;;;;;;;7.28;83.03;98509.52;214912;1276;141109;-65
2022/09/29 05:59:57;;;;;;;11.30;8.20;;;;;;;7.30;82.85;98515.80;213646;1276;140407;-66
2022/09/29 06:05:00;;;;;;;13.00;9.50;;;;;;;7.30;82.95;98518.88;213333;1276;140080;-65
2022/09/29 06:10:03;;;;;;;12.50;9.20;;;;;;;7.28;82.56;98518.63;213785;1276;163742;-67
2022/09/29 06:15:06;;;;;;;10.30;9.00;;;;;;;7.27;82.21;98522.71;213122;1276;142461;-66
2022/09/29 06:20:09;;;;;;;10.80;8.40;;;;;;;7.21;82.56;98532.90;213473;1276;154171;-69
2022/09/29 06:25:11;;;;;;;13.80;11.00;;;;;;;7.17;82.68;98541.20;214216;1276;140527;-67
2022/09/29 06:30:14;;;;;;;12.70;10.10;;;;;;;7.19;83.14;98540.91;212951;1276;141176;-66
2022/09/29 06:40:37;;;;;;;14.10;10.40;;;;;;;7.37;82.52;98555.44;213071;1276;141295;-65
2022/09/29 06:45:41;;;;;;;5.70;5.10;;;;;;;7.36;83.08;98559.24;214753;1276;140767;-65
2022/09/29 06:50:44;;;;;;;12.70;9.50;;;;;;;7.34;82.53;98560.66;214163;1276;140247;-64
2022/09/29 06:55:55;;;;;;;14.00;9.40;;;;;;;7.37;82.40;98554.91;215620;1276;141284;-65
2022/09/29 07:01:04;;;;;;;12.40;9.60;;;;;;;7.49;82.84;98551.11;215161;1276;142422;-66
2022/09/29 07:06:10;;;;;;;13.00;9.50;;;;;;;7.61;82.92;98552.24;215749;1276;140923;-66
2022/09/29 07:11:22;;;;;;;12.60;10.30;;;;;;;7.70;82.50;98560.09;214731;1276;140731;-65
2022/09/29 07:16:25;;;;;;;8.50;7.50;;;;;;;7.73;82.47;98561.96;215945;1276;140960;-65
2022/09/29 07:21:28;;;;;;;15.60;9.10;;;;;;;7.79;82.24;98561.83;215712;1276;141000;-65
2022/09/29 07:26:31;;;;;;;11.00;8.20;;;;;;;7.85;82.20;98566.84;215741;1276;140343;-65
2022/09/29 07:31:34;;;;;;;11.90;10.00;;;;;;;7.95;82.53;98573.08;215043;1276;141521;-65
2022/09/29 07:36:52;;;;;;;11.00;7.70;;;;;;;8.18;82.58;98580.69;213683;1276;140628;-64
2022/09/29 07:41:59;;;;;;;10.80;8.80;;;;;;;8.36;82.29;98584.90;212961;1276;140475;-63
2022/09/29 07:47:02;;;;;;;10.80;8.90;;;;;;;8.52;82.37;98589.67;214592;1276;140437;-65
2022/09/29 07:52:05;;;;;;;9.80;8.00;;;;;;;8.64;82.04;98595.26;214086;1276;139707;-65
2022/09/29 07:57:10;;;;;;;10.80;8.20;;;;;;;8.87;82.02;98603.15;213654;1276;139842;-64
2022/09/29 08:02:12;;;;;;;12.90;8.50;;;;;;;9.05;82.02;98611.13;214472;1276;150922;-66
2022/09/29 08:07:14;;;;;;;6.80;6.00;;;;;;;9.13;81.58;98619.35;213045;1276;140177;-65
2022/09/29 08:12:18;;;;;;;13.90;7.90;;;;;;;9.01;81.01;98622.52;213748;1276;139343;-68
2022/09/29 08:17:20;;;;;;;8.60;7.30;;;;;;;9.21;81.37;98625.79;213986;1276;140974;-66
2022/09/29 08:22:23;;;;;;;9.00;7.30;;;;;;;9.66;81.79;98629.50;213731;1276;141057;-65
2022/09/29 08:27:28;;;;;;;10.20;8.60;;;;;;;9.72;80.76;98638.75;213186;1276;141661;-65
2022/09/29 08:32:30;;;;;;;9.70;8.50;;;;;;;9.76;80.69;98635.86;213989;1276;140120;-65
2022/09/29 08:37:33;;;;;;;8.10;7.20;;;;;;;9.94;80.69;98642.71;213463;1276;140447;-64
2022/09/29 08:42:55;;;;;;;12.00;8.00;;;;;;;10.53;80.85;98639.05;213992;1276;141389;-65
2022/09/29 08:48:14;;;;;;;13.20;7.80;;;;;;;11.21;80.61;98636.64;214020;1276;140651;-65
2022/09/29 08:53:28;;;;;;;8.80;7.30;;;;;;;11.69;79.90;98639.06;214589;1276;141426;-65
2022/09/29 08:58:33;;;;;;;9.20;7.10;;;;;;;11.97;79.02;98637.39;214465;1276;141636;-66
2022/09/29 09:03:58;;;;;;;7.40;6.40;;;;;;;11.78;77.54;98645.48;215933;1276;141528;-66
2022/09/29 09:09:17;;;;;;;7.60;6.70;;;;;;;11.49;76.86;98648.73;215345;1276;140587;-67
2022/09/29 09:14:27;;;;;;;6.60;5.90;;;;;;;11.33;76.72;98650.20;215628;1277;141266;-67
2022/09/29 09:19:49;;;;;;;5.30;4.80;;;;;;;11.14;76.45;98648.42;214137;1276;141114;-66
2022/09/29 09:25:12;;;;;;;6.40;5.80;;;;;;;11.28;77.20;98650.85;215044;1276;139961;-67
2022/09/29 09:30:18;;;;;;;5.10;4.60;;;;;;;11.88;77.41;98649.46;213978;1276;140258;-66
2022/09/29 09:35:49;;;;;;;5.60;4.90;;;;;;;12.26;77.27;98656.34;213321;1277;140171;-66
2022/09/29 09:41:01;;;;;;;5.80;5.30;;;;;;;12.73;77.11;98658.31;215079;1276;140693;-66
2022/09/29 09:46:25;;;;;;;5.80;5.20;;;;;;;13.27;76.31;98659.20;213593;1276;141011;-65
2022/09/29 09:51:51;;;;;;;5.00;4.60;;;;;;;13.41;74.97;98663.60;214117;1276;142518;-66
2022/09/29 09:57:24;;;;;;;5.30;4.80;;;;;;;13.24;74.56;98668.15;213553;1276;725282;-65
2022/09/29 10:02:29;;;;;;;5.30;4.80;;;;;;;13.15;74.06;98672.64;212909;1277;141441;-65
2022/09/29 10:07:32;;;;;;;4.60;4.20;;;;;;;13.35;74.27;98679.05;213415;1276;141099;-64
2022/09/29 10:12:34;;;;;;;3.50;3.30;;;;;;;13.58;73.66;98676.80;213126;1276;141558;-64
2022/09/29 10:17:45;;;;;;;3.00;2.70;;;;;;;13.90;73.24;98675.77;213870;1277;142198;-65
2022/09/29 10:22:49;;;;;;;3.80;3.00;;;;;;;14.22;72.67;98672.09;213191;1277;140188;-64
2022/09/29 10:27:56;;;;;;;2.20;2.10;;;;;;;14.47;71.81;98676.45;213341;1276;141752;-65
2022/09/29 10:33:05;;;;;;;3.20;2.70;;;;;;;14.67;70.98;98683.14;213383;1276;141557;-67
2022/09/29 10:38:17;;;;;;;3.20;2.90;;;;;;;14.87;71.12;98686.17;213274;1276;142675;-68
2022/09/29 10:43:25;;;;;;;2.10;1.90;;;;;;;15.05;70.48;98690.54;214305;1276;143132;-68
2022/09/29 10:48:28;;;;;;;2.60;2.40;;;;;;;15.33;69.27;98695.89;214002;1276;140073;-67
2022/09/29 10:53:35;;;;;;;2.50;2.30;;;;;;;15.51;69.14;98697.95;215042;1276;140036;-68
2022/09/29 10:58:44;;;;;;;4.40;2.90;;;;;;;15.81;68.34;98697.16;215166;1275;140365;-68
2022/09/29 11:04:14;;;;;;;2.60;2.40;;;;;;;16.11;67.76;98697.46;216093;1276;139940;-68
2022/09/29 11:09:20;;;;;;;2.90;2.70;;;;;;;16.32;66.15;98686.37;215137;1276;139997;-68
2022/09/29 11:14:35;;;;;;;2.30;2.10;;;;;;;16.51;66.02;98694.15;215968;1276;225517;-67
2022/09/29 11:19:39;;;;;;;1.80;1.70;;;;;;;16.90;65.37;98695.04;214408;1276;139873;-68
2022/09/29 11:25:10;;;;;;;2.50;2.30;;;;;;;17.23;64.78;98699.41;215909;1276;140539;-71
2022/09/29 11:30:20;;;;;;;2.00;1.80;;;;;;;17.40;64.04;98700.54;214853;1276;140519;-68
2022/09/29 11:35:38;;;;;;;2.20;2.10;;;;;;;17.45;63.02;98705.14;213879;1276;139690;-65
2022/09/29 11:40:51;;;;;;;1.60;1.50;;;;;;;17.28;62.13;98699.88;214023;1275;140063;-66
2022/09/29 11:46:27;;;;;;;1.80;1.70;;;;;;;17.28;62.16;98701.39;214579;1276;140291;-67
2022/09/29 11:51:33;;;;;;;1.60;1.30;;;;;;;17.39;61.17;98709.38;213785;1276;141733;-66
2022/09/29 11:56:46;;;;;;;1.30;1.30;;;;;;;17.26;60.47;98711.61;214005;1276;139453;-66
2022/09/29 12:02:19;;;;;;;1.80;1.60;;;;;;;17.46;60.45;98713.96;214153;1275;140398;-67
2022/09/29 12:07:59;;;;;;;1.50;1.40;;;;;;;17.59;60.06;98719.43;213069;1276;140465;-67
2022/09/29 12:13:12;;;;;;;1.40;1.30;;;;;;;17.62;59.51;98714.84;213843;1277;139726;-68
2022/09/29 12:18:39;;;;;;;2.20;1.80;;;;;;;17.52;59.34;98716.13;213163;1276;141795;-68
2022/09/29 12:23:45;;;;;;;1.60;1.50;;;;;;;17.41;59.07;98714.40;213861;1276;140269;-67
2022/09/29 12:28:59;;;;;;;;;;;;;;;17.21;58.95;98725.88;213231;1276;139699;-68
2022/09/29 12:34:28;;;;;;;1.80;1.70;;;;;;;16.99;59.00;98729.05;214743;1276;126535;-68
2022/09/29 12:39:55;;;;;;;1.40;1.40;;;;;;;16.67;58.42;98736.30;213787;1276;140018;-68
2022/09/29 12:45:05;;;;;;;1.10;1.00;;;;;;;16.60;58.73;98738.14;214101;1276;139661;-68
2022/09/29 12:50:25;;;;;;;2.00;1.90;;;;;;;16.31;58.25;98738.02;213405;1276;151689;-68
2022/09/29 12:56:00;;;;;;;1.50;1.40;;;;;;;15.93;58.20;98739.11;214449;1276;140607;-69
2022/09/29 13:01:15;;;;;;;1.50;1.40;;;;;;;15.86;58.57;98742.02;214098;1276;140499;-68
2022/09/29 13:06:57;;;;;;;1.50;1.40;;;;;;;16.13;58.24;98734.48;215207;1276;140352;-68
2022/09/29 13:12:31;;;;;;;1.80;1.50;;;;;;;16.10;57.89;98735.23;215410;1276;141359;-67
2022/09/29 13:17:43;;;;;;;1.80;1.60;;;;;;;16.15;57.82;98736.65;215908;1276;140284;-67
2022/09/29 13:23:13;;;;;;;1.80;1.70;;;;;;;15.96;57.99;98743.95;215579;1276;140598;-66
2022/09/29 13:28:25;;;;;;;1.60;1.50;;;;;;;16.00;58.13;98743.23;215905;1276;140149;-65
2022/09/29 13:33:30;;;;;;;1.90;1.60;;;;;;;15.94;58.16;98750.16;216012;1276;139909;-69
2022/09/29 13:38:38;;;;;;;2.10;2.00;;;;;;;16.04;58.21;98754.50;214587;1276;142690;-68
2022/09/29 13:43:51;;;;;;;2.90;2.50;;;;;;;15.74;57.87;98758.05;214866;1276;141480;-66
2022/09/29 13:49:12;;;;;;;2.10;2.00;;;;;;;15.38;58.36;98763.16;213484;1275;141264;-67
2022/09/29 13:54:27;;;;;;;3.60;1.70;;;;;;;15.19;58.71;98763.69;214066;1276;141428;-67
2022/09/29 13:59:31;;;;;;;2.50;2.30;;;;;;;14.95;59.11;98769.24;214270;1276;140293;-66
2022/09/29 14:04:40;;;;;;;2.90;2.10;;;;;;;14.76;59.45;98775.57;213959;1276;140923;-66
2022/09/29 14:09:46;;;;;;;2.10;2.00;;;;;;;14.65;59.70;98774.56;213213;1276;141786;-66
2022/09/29 14:14:56;;;;;;;2.50;2.30;;;;;;;14.56;60.17;98777.52;213227;1276;140678;-66
2022/09/29 14:20:09;;;;;;;2.90;2.70;;;;;;;14.48;60.40;98776.56;213552;1276;141410;-67
2022/09/29 14:25:14;;;;;;;2.00;1.90;;;;;;;14.52;60.47;98782.48;213207;1276;141428;-64
2022/09/29 14:30:40;;;;;;;2.50;2.30;;;;;;;14.52;59.70;98782.80;213269;1276;141561;-66
2022/09/29 14:35:49;;;;;;;2.00;1.90;;;;;;;14.41;60.00;98796.89;213120;1274;162896;-67
2022/09/29 14:41:02;;;;;;;2.10;2.00;;;;;;;14.35;60.32;98803.59;212814;1276;142915;-70
2022/09/29 14:51:59;;;;;;;2.60;2.30;;;;;;;14.14;60.33;98799.84;214267;1276;140286;-69
2022/09/29 14:57:24;;;;;;;3.50;3.00;;;;;;;14.08;60.59;98797.91;213023;1276;141419;-67
2022/09/29 15:02:29;;;;;;;1.80;1.70;;;;;;;13.93;61.60;98796.95;215433;1276;140868;-69
2022/09/29 15:07:40;;;;;;;2.00;1.90;;;;;;;13.70;61.98;98807.88;215727;1275;141356;-70
2022/09/29 15:12:49;;;;;;;2.80;1.50;;;;;;;13.48;62.66;98816.04;213294;1275;140808;-72
2022/09/29 15:18:00;;;;;;;8.10;2.30;;;;;;;13.27;63.44;98815.80;215085;1276;140633;-66
2022/09/29 15:23:38;;;;;;;1.60;1.60;;;;;;;13.15;63.63;98820.30;215880;1276;142096;-66
2022/09/29 15:28:42;;;;;;;2.30;2.10;;;;;;;13.06;64.12;98827.91;215507;1276;144162;-69
2022/09/29 15:33:46;;;;;;;6.40;2.40;;;;;;;12.99;64.92;98842.64;214265;1276;141155;-67
2022/09/29 15:38:52;;;;;;;2.20;2.00;;;;;;;12.96;65.38;98844.09;215319;1275;140728;-69
2022/09/29 15:44:01;;;;;;;2.00;1.20;;;;;;;12.96;66.14;98848.27;213999;1275;141546;-66
2022/09/29 15:49:17;;;;;;;1.90;1.80;;;;;;;12.78;66.37;98849.16;213470;1276;141426;-66
2022/09/29 15:54:20;;;;;;;1.80;1.70;;;;;;;12.52;66.51;98842.57;214275;1276;140152;-67
2022/09/29 15:59:54;;;;;;;3.60;2.70;;;;;;;12.33;66.93;98846.85;214581;1275;141281;-67
2022/09/29 16:05:03;;;;;;;8.10;1.40;;;;;;;12.25;67.48;98859.30;214287;1276;140131;-67
2022/09/29 16:10:19;;;;;;;3.00;2.30;;;;;;;12.15;67.55;98854.44;213502;1276;141077;-65
2022/09/29 16:15:28;;;;;;;2.20;2.00;;;;;;;12.04;67.62;98863.78;212722;1276;142056;-67
2022/09/29 16:20:33;;;;;;;2.70;2.50;;;;;;;11.84;67.80;98865.89;214132;1276;139993;-70
2022/09/29 16:25:36;;;;;;;4.90;3.90;;;;;;;11.62;67.76;98872.20;213227;1276;140847;-68
2022/09/29 16:30:38;;;;;;;2.90;2.70;;;;;;;11.36;67.88;98875.79;213905;1276;141470;-70
2022/09/29 16:35:47;;;;;;;3.00;2.80;;;;;;;11.07;68.30;98874.95;213501;1276;141137;-68
2022/09/29 16:40:52;;;;;;;2.90;2.70;;;;;;;10.87;68.27;98878.42;213686;1276;140826;-66
2022/09/29 16:45:58;;;;;;;1.40;1.40;;;;;;;10.50;68.33;98881.66;213067;1276;154900;-66
2022/09/29 16:51:05;;;;;;;2.60;2.40;;;;;;;10.20;68.77;98894.83;213040;1276;140431;-67
2022/09/29 16:56:31;;;;;;;6.50;4.80;;;;;;;9.99;69.18;98905.54;213771;1276;140919;-65
2022/09/29 17:01:33;;;;;;;5.00;4.50;;;;;;;9.81;69.49;98903.64;213541;1276;139960;-67
2022/09/29 17:06:36;;;;;;;4.30;3.60;;;;;;;9.63;69.53;98904.17;214657;1274;140443;-67
2022/09/29 17:11:39;;;;;;;3.30;2.80;;;;;;;9.41;69.75;98912.59;214196;1275;142205;-66
2022/09/29 17:16:41;;;;;;;9.10;3.40;;;;;;;9.22;69.87;98923.77;213838;1276;140351;-67
2022/09/29 17:21:45;;;;;;;7.40;3.90;;;;;;;9.00;69.98;98927.61;215792;1276;139381;-68
2022/09/29 17:32:14;;;;;;;4.20;3.80;;;;;;;8.50;70.84;98957.54;215041;1276;139943;-70
2022/09/29 17:37:17;;;;;;;8.90;5.50;;;;;;;8.47;71.15;98966.09;213644;1275;151094;-66
2022/09/29 17:42:25;;;;;;;7.20;5.90;;;;;;;8.51;71.55;98973.35;213800;1276;141236;-68
2022/09/29 17:47:28;;;;;;;7.70;6.50;;;;;;;8.48;71.34;98963.90;213949;1277;140221;-66
2022/09/29 17:52:39;;;;;;;4.80;4.40;;;;;;;8.25;71.05;98964.41;213990;1276;139555;-66
2022/09/29 17:57:48;;;;;;;6.60;6.00;;;;;;;7.98;71.46;98968.80;213145;1276;140545;-66
2022/09/29 18:02:58;;;;;;;13.00;8.00;;;;;;;7.86;72.03;98975.10;213749;1276;140811;-65
2022/09/29 18:08:02;;;;;;;23.60;13.70;;;;;;;7.81;71.89;98981.94;212956;1275;141969;-68
2022/09/29 18:13:06;;;;;;;23.10;15.50;;;;;;;7.75;72.29;98985.39;212808;1276;141447;-70
2022/09/29 18:18:17;;;;;;;34.50;21.50;;;;;;;7.68;72.33;98984.11;213643;1275;140475;-67
2022/09/29 18:23:24;;;;;;;24.80;16.10;;;;;;;7.55;72.52;98986.77;213688;1276;140805;-67
2022/09/29 18:28:27;;;;;;;17.50;12.90;;;;;;;7.33;72.28;98991.80;214437;1276;141227;-67
2022/09/29 18:33:30;;;;;;;26.00;15.50;;;;;;;7.05;72.34;99000.92;213344;1276;143732;-67
2022/09/29 18:38:33;;;;;;;25.70;14.80;;;;;;;6.93;73.14;98998.11;212799;1274;141579;-67
2022/09/29 18:43:39;;;;;;;25.70;15.50;;;;;;;6.93;72.92;99003.56;214539;1277;141319;-68
2022/09/29 18:48:42;;;;;;;22.70;15.50;;;;;;;6.84;73.00;99004.86;213145;1276;142815;-68
2022/09/29 18:53:44;;;;;;;33.50;21.00;;;;;;;6.76;73.13;99007.38;213164;1276;140464;-71
2022/09/29 18:58:47;;;;;;;38.30;19.80;;;;;;;6.65;73.46;99012.62;214627;1276;140109;-69
2022/09/29 19:03:50;;;;;;;38.00;21.40;;;;;;;6.54;73.37;99024.30;213196;1276;140970;-68
2022/09/29 19:08:54;;;;;;;49.10;26.10;;;;;;;6.50;73.96;99028.74;215527;1276;141693;-70
2022/09/29 19:14:00;;;;;;;36.80;21.30;;;;;;;6.42;73.92;99036.77;215408;1276;142301;-69
2022/09/29 19:19:09;;;;;;;31.80;22.70;;;;;;;6.37;74.13;99043.69;215457;1276;141216;-67
2022/09/29 19:24:13;;;;;;;23.50;16.50;;;;;;;6.33;74.19;99040.77;214499;1276;141879;-68
2022/09/29 19:29:16;;;;;;;28.40;19.20;;;;;;;6.26;74.66;99041.17;214250;1276;141771;-69
2022/09/29 19:34:18;;;;;;;30.30;19.00;;;;;;;6.24;74.86;99037.95;214835;1276;238958;-67
2022/09/29 19:39:23;;;;;;;26.50;18.10;;;;;;;6.17;74.85;99032.45;214199;1276;141904;-68
2022/09/29 19:44:28;;;;;;;33.30;19.20;;;;;;;6.18;74.91;99037.48;214075;1276;143362;-68
2022/09/29 19:49:32;;;;;;;34.40;20.00;;;;;;;6.15;74.63;99046.80;213100;1276;142032;-67
2022/09/29 19:54:38;;;;;;;34.20;21.40;;;;;;;6.15;74.94;99053.03;213777;1276;141866;-67
2022/09/29 19:59:42;;;;;;;34.10;19.30;;;;;;;6.12;75.23;99057.92;212966;1276;140793;-70
2022/09/29 20:04:44;;;;;;;30.40;21.50;;;;;;;6.02;74.80;99056.83;214174;1276;141572;-65
2022/09/29 20:09:48;;;;;;;28.40;19.70;;;;;;;5.91;75.15;99062.67;213209;1276;140712;-67
2022/09/29 20:14:50;;;;;;;30.70;20.40;;;;;;;5.86;75.38;99067.55;213376;1276;141704;-67
2022/09/29 20:19:54;;;;;;;28.50;22.30;;;;;;;5.81;75.23;99067.05;213063;1276;141976;-66
2022/09/29 20:24:57;;;;;;;28.10;21.80;;;;;;;5.75;75.13;99067.56;213052;1276;140864;-65
2022/09/29 20:30:04;;;;;;;29.80;19.90;;;;;;;5.60;75.22;99068.76;213132;1276;140933;-66
2022/09/29 20:35:09;;;;;;;32.40;18.80;;;;;;;5.42;75.10;99073.98;214363;1276;141182;-66
2022/09/29 20:40:12;;;;;;;33.70;21.00;;;;;;;5.28;75.35;99067.71;213267;1276;140276;-65
2022/09/29 20:45:18;;;;;;;37.30;22.30;;;;;;;5.18;75.34;99072.40;213309;1276;141394;-67
2022/09/29 20:50:20;;;;;;;36.90;21.20;;;;;;;5.09;75.56;99077.20;214802;1277;141253;-67
2022/09/29 20:55:23;;;;;;;30.00;22.40;;;;;;;5.03;75.80;99077.68;212951;1276;141738;-68
2022/09/29 21:00:26;;;;;;;38.40;23.90;;;;;;;5.00;75.92;99081.93;212798;1276;140739;-67
2022/09/29 21:05:28;;;;;;;33.80;23.40;;;;;;;5.03;76.53;99086.45;215661;1276;140789;-68
2022/09/29 21:10:31;;;;;;;38.20;25.10;;;;;;;5.01;76.39;99089.84;214076;1276;140053;-68
2022/09/29 21:15:33;;;;;;;46.50;27.70;;;;;;;4.96;76.56;99094.59;213480;1276;140164;-68
2022/09/29 21:20:36;;;;;;;49.70;30.30;;;;;;;4.97;76.53;99101.20;215713;1276;140072;-70
2022/09/29 21:25:38;;;;;;;46.20;29.10;;;;;;;4.91;76.53;99110.79;214198;1276;141214;-68
2022/09/29 21:30:40;;;;;;;50.70;27.60;;;;;;;4.86;76.56;99122.58;213790;1276;141872;-67
2022/09/29 21:35:44;;;;;;;45.80;28.00;;;;;;;4.92;76.78;99126.63;214013;1276;141560;-67
2022/09/29 21:40:47;;;;;;;39.80;26.90;;;;;;;4.89;76.42;99137.75;214535;1276;252025;-69
2022/09/29 21:45:49;;;;;;;37.00;26.40;;;;;;;4.76;76.46;99144.49;214450;1276;140248;-67
2022/09/29 21:50:59;;;;;;;58.60;31.90;;;;;;;4.73;76.73;99145.96;213535;1276;140115;-70
2022/09/29 21:56:06;;;;;;;52.50;33.40;;;;;;;4.74;76.82;99150.34;213207;1276;868474;-67
2022/09/29 22:01:09;;;;;;;57.00;34.30;;;;;;;4.68;76.73;99151.14;213954;1276;141402;-67
2022/09/29 22:06:20;;;;;;;47.50;36.10;;;;;;;4.62;76.57;99156.41;212932;1276;140457;-70
2022/09/29 22:11:26;;;;;;;46.20;28.10;;;;;;;4.52;76.81;99156.98;213317;1276;142596;-68
2022/09/29 22:16:30;;;;;;;43.40;29.30;;;;;;;4.42;77.11;99156.34;213194;1276;139430;-67
2022/09/29 22:21:34;;;;;;;54.90;30.90;;;;;;;4.35;77.14;99160.77;213932;1276;139798;-69
2022/09/29 22:26:38;;;;;;;42.10;29.30;;;;;;;4.28;77.13;99174.29;214127;1276;139771;-67
2022/09/29 22:31:41;;;;;;;45.80;33.00;;;;;;;4.25;77.35;99177.31;213083;1275;140256;-66
2022/09/29 22:36:44;;;;;;;47.20;31.30;;;;;;;4.25;77.63;99185.27;213526;1276;140968;-67
2022/09/29 22:41:51;;;;;;;44.60;31.90;;;;;;;4.24;77.45;99173.30;214223;1276;141479;-67
2022/09/29 22:46:54;;;;;;;49.50;28.60;;;;;;;4.26;77.66;99182.88;213296;1276;139473;-65
2022/09/29 22:51:56;;;;;;;53.80;31.90;;;;;;;4.18;77.60;99188.65;214977;1276;141594;-67
2022/09/29 22:56:59;;;;;;;47.30;29.20;;;;;;;4.13;77.74;99193.33;214420;1276;141153;-67
2022/09/29 23:02:01;;;;;;;44.90;28.70;;;;;;;4.13;77.75;99199.33;214944;1276;142200;-67
2022/09/29 23:07:03;;;;;;;44.70;29.00;;;;;;;4.17;77.95;99201.84;214627;1277;142195;-67
2022/09/29 23:12:06;;;;;;;48.30;29.20;;;;;;;4.13;77.67;99204.80;215658;1276;141839;-67
2022/09/29 23:17:08;;;;;;;46.80;30.40;;;;;;;4.08;77.96;99218.08;215849;1276;141851;-65
2022/09/29 23:22:11;;;;;;;49.90;31.00;;;;;;;4.12;78.47;99218.73;215492;1276;224723;-67
2022/09/29 23:27:13;;;;;;;43.50;31.90;;;;;;;4.21;78.51;99220.26;215692;1276;141315;-65
2022/09/29 23:32:17;;;;;;;44.20;29.60;;;;;;;4.31;78.77;99207.80;215113;1276;140497;-66
2022/09/29 23:37:20;;;;;;;35.60;25.00;;;;;;;4.42;78.78;99201.41;214036;1276;140501;-65
2022/09/29 23:42:22;;;;;;;44.20;28.10;;;;;;;4.41;78.42;99205.59;213980;1276;141512;-67
2022/09/29 23:47:24;;;;;;;41.70;27.70;;;;;;;4.35;78.52;99206.33;213628;1276;141540;-68
2022/09/29 23:52:26;;;;;;;42.20;26.70;;;;;;;4.38;78.77;99199.30;213304;1276;140747;-66